アダック島 の空港の天気 - METARとTAF

アダック空港 ( PADK / ADK ) - アメリカ アラスカ州アダック島
飛行場実況気象(Metar)
観測時間10/15 20:56 AKDT (10/16 04:56 UTC)
風向・風速西北西 9m/s 瞬間風速18m/s
視程10km以上
天気現象
全天の4割程度の雲 雲底高度 730m
全天の8割程度の雲 雲底高度 910m
全天を覆う雲 雲底高度 1040m
気温7.8℃
湿度76%
気圧998.6hPa
METARPADK 160456Z AUTO 30017G35KT 10SM SCT024 BKN030 OVC034 08/04 A2949 RMK AO2 PK WND 28035/0453 RAE03B19E31 SLP986 P0000 T00780039
過去の天気等 Google飛行場航空写真 Wunderground天気予報

過去48時間のMETAR

飛行場予報(TAF)
データがありません